Time;durP1;ratioP1;P1;durP2;ratioP2;P2;SDS_P1;SDS_P2;PMS_P1;PMS_P2;Temp;Humidity;BMP_temperature;BMP_pressure;BME280_temperature;BME280_humidity;BME280_pressure;Samples;Min_cycle;Max_cycle;Signal;HPM_P1;HPM_P2
2023/03/08 00:01:23;;;;;;;7.57;1.20;;;;;;;;;;5052762;28;20361;-80
2023/03/08 00:03:52;;;;;;;6.93;1.05;;;;;;;;;;5053058;28;20033;-80
2023/03/08 00:06:20;;;;;;;4.85;1.10;;;;;;;;;;5023969;28;20093;-80
2023/03/08 00:09:14;;;;;;;3.45;0.80;;;;;;;;;;5039155;28;20033;-80
2023/03/08 00:11:46;;;;;;;6.53;1.27;;;;;;;;;;5051282;28;20033;-81
2023/03/08 00:14:15;;;;;;;2.13;1.08;;;;;;;;;;5040337;28;20632;-81
2023/03/08 00:16:42;;;;;;;4.90;0.95;;;;;;;;;;5032704;28;20049;-81
2023/03/08 00:19:10;;;;;;;3.15;1.00;;;;;;;;;;5034569;28;20037;-80
2023/03/08 00:21:44;;;;;;;2.15;1.00;;;;;;;;;;5029779;28;20043;-81
2023/03/08 00:24:18;;;;;;;2.33;0.90;;;;;;;;;;5037680;28;20514;-81
2023/03/08 00:29:46;;;;;;;2.03;1.25;;;;;;;;;;5038478;28;20045;-80
2023/03/08 00:32:15;;;;;;;2.13;0.88;;;;;;;;;;5037628;28;20043;-80
2023/03/08 00:34:45;;;;;;;2.42;0.98;;;;;;;;;;5022476;28;20076;-81
2023/03/08 00:37:13;;;;;;;1.48;0.82;;;;;;;;;;5037842;28;21882;-81
2023/03/08 00:39:40;;;;;;;1.75;0.88;;;;;;;;;;5040461;28;20045;-81
2023/03/08 00:42:08;;;;;;;1.85;1.05;;;;;;;;;;5037082;28;20038;-81
2023/03/08 00:44:36;;;;;;;5.70;1.30;;;;;;;;;;5037338;28;20506;-80
2023/03/08 00:47:04;;;;;;;7.03;1.17;;;;;;;;;;5020771;28;20068;-80
2023/03/08 00:49:36;;;;;;;4.45;1.25;;;;;;;;;;5036966;28;20092;-81
2023/03/08 00:52:05;;;;;;;3.42;1.00;;;;;;;;;;5021144;28;20782;-81
2023/03/08 00:54:32;;;;;;;3.88;1.30;;;;;;;;;;5050589;28;20107;-81
2023/03/08 00:57:02;;;;;;;3.67;1.08;;;;;;;;;;5035526;28;20126;-81
2023/03/08 00:59:30;;;;;;;4.00;1.13;;;;;;;;;;5023214;28;20048;-80
2023/03/08 01:02:22;;;;;;;1.23;0.70;;;;;;;;;;5050690;28;20067;-81
2023/03/08 01:04:56;;;;;;;4.63;0.95;;;;;;;;;;5050710;28;20594;-80
2023/03/08 01:07:27;;;;;;;7.93;1.42;;;;;;;;;;5035873;28;20037;-81
2023/03/08 01:09:55;;;;;;;1.92;0.82;;;;;;;;;;5035098;28;20753;-81
2023/03/08 01:12:24;;;;;;;1.98;0.85;;;;;;;;;;5024625;28;20048;-81
2023/03/08 01:14:52;;;;;;;1.88;1.00;;;;;;;;;;5034104;28;20060;-80
2023/03/08 01:17:20;;;;;;;3.63;1.48;;;;;;;;;;5017831;28;20032;-81
2023/03/08 01:19:48;;;;;;;3.33;1.23;;;;;;;;;;5045375;28;20041;-80
2023/03/08 01:22:40;;;;;;;2.65;1.20;;;;;;;;;;5050302;28;20035;-80
2023/03/08 01:25:08;;;;;;;3.15;1.50;;;;;;;;;;5021628;28;20068;-80
2023/03/08 01:27:36;;;;;;;2.53;1.10;;;;;;;;;;5050203;28;20384;-81
2023/03/08 01:30:05;;;;;;;2.88;1.35;;;;;;;;;;5048789;28;20048;-80
2023/03/08 01:32:40;;;;;;;4.60;1.90;;;;;;;;;;5050468;28;20057;-81
2023/03/08 01:35:09;;;;;;;3.45;1.30;;;;;;;;;;5017564;28;20828;-81
2023/03/08 01:38:00;;;;;;;1.90;1.08;;;;;;;;;;5046593;28;20048;-80
2023/03/08 01:40:33;;;;;;;3.83;1.33;;;;;;;;;;5018172;28;20864;-81
2023/03/08 01:43:51;;;;;;;6.22;1.30;;;;;;;;;;5036206;28;20033;-81
2023/03/08 01:46:25;;;;;;;5.97;1.50;;;;;;;;;;5050995;28;20118;-81
2023/03/08 01:49:29;;;;;;;1.98;1.10;;;;;;;;;;5016455;28;20167;-81
2023/03/08 01:52:12;;;;;;;6.22;1.23;;;;;;;;;;5019735;28;20589;-81
2023/03/08 01:54:53;;;;;;;3.17;1.30;;;;;;;;;;5034416;28;20059;-81
2023/03/08 01:57:54;;;;;;;2.13;1.08;;;;;;;;;;5020632;28;20918;-81
2023/03/08 02:00:25;;;;;;;2.47;1.30;;;;;;;;;;5019223;28;20045;-81
2023/03/08 02:03:19;;;;;;;5.32;1.50;;;;;;;;;;5022817;28;20044;-81
2023/03/08 02:05:48;;;;;;;3.58;1.30;;;;;;;;;;5030301;28;20049;-81
2023/03/08 02:08:20;;;;;;;3.97;1.50;;;;;;;;;;5047844;28;20045;-81
2023/03/08 02:10:53;;;;;;;3.28;1.23;;;;;;;;;;5036140;28;20473;-80
2023/03/08 02:13:20;;;;;;;4.60;1.65;;;;;;;;;;5034054;28;20041;-81
2023/03/08 02:15:49;;;;;;;2.75;1.48;;;;;;;;;;5033313;28;20041;-80
2023/03/08 02:18:20;;;;;;;4.32;1.48;;;;;;;;;;5034360;28;20053;-81
2023/03/08 02:20:48;;;;;;;8.23;1.80;;;;;;;;;;5034599;28;20172;-81
2023/03/08 02:23:22;;;;;;;6.32;1.58;;;;;;;;;;5033608;28;20116;-81
2023/03/08 02:25:57;;;;;;;2.97;1.40;;;;;;;;;;5035354;28;20099;-80
2023/03/08 02:28:50;;;;;;;2.55;1.50;;;;;;;;;;5037392;28;20114;-81
2023/03/08 02:31:20;;;;;;;3.50;1.50;;;;;;;;;;5037458;28;20557;-81
2023/03/08 02:33:48;;;;;;;5.03;1.33;;;;;;;;;;5036291;28;20158;-80
2023/03/08 02:36:40;;;;;;;7.15;1.90;;;;;;;;;;5046948;28;20113;-80
2023/03/08 02:39:08;;;;;;;5.70;1.67;;;;;;;;;;5017189;28;20048;-80
2023/03/08 02:41:36;;;;;;;3.03;1.80;;;;;;;;;;5021573;28;20050;-80
2023/03/08 02:44:04;;;;;;;3.33;1.55;;;;;;;;;;5037795;28;20044;-80
2023/03/08 02:46:36;;;;;;;3.50;1.83;;;;;;;;;;5028194;28;20522;-80
2023/03/08 02:49:04;;;;;;;5.13;2.00;;;;;;;;;;5019705;28;20072;-81
2023/03/08 02:51:32;;;;;;;3.20;1.55;;;;;;;;;;5051755;28;20072;-80
2023/03/08 02:54:00;;;;;;;4.53;1.88;;;;;;;;;;5038225;28;20778;-80
2023/03/08 02:56:28;;;;;;;3.95;2.08;;;;;;;;;;5026715;28;20061;-81
2023/03/08 02:58:56;;;;;;;5.57;2.40;;;;;;;;;;5035239;28;20069;-81
2023/03/08 03:01:24;;;;;;;4.43;1.92;;;;;;;;;;5052503;28;20117;-81
2023/03/08 03:03:54;;;;;;;4.95;2.47;;;;;;;;;;5010476;28;20547;-81
2023/03/08 03:06:22;;;;;;;3.45;2.03;;;;;;;;;;5038611;28;20037;-80
2023/03/08 03:08:52;;;;;;;7.32;2.85;;;;;;;;;;5005304;28;20048;-80
2023/03/08 03:11:22;;;;;;;3.70;2.40;;;;;;;;;;5021797;28;20510;-81
2023/03/08 03:13:57;;;;;;;5.40;2.90;;;;;;;;;;5036604;28;20050;-81
2023/03/08 03:16:30;;;;;;;7.18;2.72;;;;;;;;;;5038525;28;20033;-80
2023/03/08 03:19:22;;;;;;;4.60;2.47;;;;;;;;;;5038646;28;20040;-80
2023/03/08 03:21:50;;;;;;;6.63;2.90;;;;;;;;;;5038784;28;20041;-81
2023/03/08 03:24:18;;;;;;;5.00;2.42;;;;;;;;;;5034772;28;20037;-80
2023/03/08 03:26:54;;;;;;;7.30;2.92;;;;;;;;;;5036213;28;20095;-81
2023/03/08 03:29:24;;;;;;;5.18;2.97;;;;;;;;;;5023465;28;20091;-80
2023/03/08 03:32:00;;;;;;;4.93;2.75;;;;;;;;;;5023543;28;20483;-80
2023/03/08 03:34:28;;;;;;;5.25;2.92;;;;;;;;;;5035348;28;20060;-81
2023/03/08 03:36:56;;;;;;;5.35;2.70;;;;;;;;;;5038838;28;20103;-81
2023/03/08 03:39:33;;;;;;;8.48;2.90;;;;;;;;;;5051615;28;20030;-81
2023/03/08 03:42:02;;;;;;;4.95;2.70;;;;;;;;;;5027350;28;20041;-80
2023/03/08 03:44:30;;;;;;;4.75;2.85;;;;;;;;;;5020250;28;20408;-80
2023/03/08 03:47:17;;;;;;;8.85;2.83;;;;;;;;;;5049130;28;20450;-82
2023/03/08 03:49:46;;;;;;;6.75;2.65;;;;;;;;;;5020863;28;20049;-81
2023/03/08 03:52:20;;;;;;;5.80;3.03;;;;;;;;;;5035787;28;20045;-81
2023/03/08 03:54:58;;;;;;;5.25;2.90;;;;;;;;;;5022108;28;20044;-81
2023/03/08 03:57:26;;;;;;;5.35;3.08;;;;;;;;;;5038028;28;20507;-80
2023/03/08 04:00:00;;;;;;;5.80;3.00;;;;;;;;;;5049797;28;20037;-80
2023/03/08 04:02:28;;;;;;;6.00;2.72;;;;;;;;;;5022845;28;20136;-81
2023/03/08 04:05:20;;;;;;;6.10;2.88;;;;;;;;;;5053070;28;20029;-81
2023/03/08 04:08:13;;;;;;;5.00;2.75;;;;;;;;;;5051755;28;20033;-81
2023/03/08 04:10:42;;;;;;;4.72;2.53;;;;;;;;;;5019128;28;20056;-81
2023/03/08 04:13:11;;;;;;;5.63;3.08;;;;;;;;;;5010504;28;20048;-81
2023/03/08 04:15:40;;;;;;;4.95;2.80;;;;;;;;;;5047318;28;20060;-81
2023/03/08 04:18:34;;;;;;;7.88;3.00;;;;;;;;;;5037279;28;20036;-81
2023/03/08 04:21:09;;;;;;;5.20;3.00;;;;;;;;;;5051050;28;20040;-81
2023/03/08 04:23:37;;;;;;;7.20;3.10;;;;;;;;;;5034262;28;20065;-81
2023/03/08 04:26:12;;;;;;;5.97;3.00;;;;;;;;;;5022373;28;20043;-80
2023/03/08 04:28:41;;;;;;;5.95;3.05;;;;;;;;;;5049363;28;20044;-80
2023/03/08 04:31:18;;;;;;;8.43;3.00;;;;;;;;;;5021776;28;20065;-81
2023/03/08 04:33:51;;;;;;;6.75;2.80;;;;;;;;;;5050623;28;20041;-81
2023/03/08 04:36:46;;;;;;;6.57;2.42;;;;;;;;;;5051044;28;20044;-81
2023/03/08 04:39:14;;;;;;;5.00;3.08;;;;;;;;;;5020525;28;20041;-81
2023/03/08 04:41:42;;;;;;;8.73;3.08;;;;;;;;;;5020494;28;20040;-81
2023/03/08 04:44:27;;;;;;;4.32;2.80;;;;;;;;;;5035388;28;20064;-81
2023/03/08 04:46:54;;;;;;;4.85;2.60;;;;;;;;;;5050105;28;20053;-81
2023/03/08 04:49:40;;;;;;;6.53;3.15;;;;;;;;;;5033255;28;20049;-80
2023/03/08 04:52:08;;;;;;;4.68;2.60;;;;;;;;;;5051558;28;20519;-81
2023/03/08 04:54:38;;;;;;;9.15;3.00;;;;;;;;;;5020108;28;20043;-81
2023/03/08 04:57:20;;;;;;;5.45;3.10;;;;;;;;;;5035850;28;20153;-80
2023/03/08 04:59:56;;;;;;;5.78;2.75;;;;;;;;;;5020621;28;20041;-81
2023/03/08 05:02:24;;;;;;;7.40;2.67;;;;;;;;;;5034082;28;20041;-81
2023/03/08 05:04:52;;;;;;;4.40;2.35;;;;;;;;;;5051083;28;20049;-81
2023/03/08 05:07:20;;;;;;;4.03;2.13;;;;;;;;;;5040043;28;20711;-81
2023/03/08 05:09:54;;;;;;;8.15;2.92;;;;;;;;;;5021738;28;20047;-81
2023/03/08 05:12:24;;;;;;;6.38;2.90;;;;;;;;;;5024411;28;20403;-81
2023/03/08 05:14:56;;;;;;;5.95;2.72;;;;;;;;;;5018544;28;20427;-81
2023/03/08 05:17:26;;;;;;;3.97;2.47;;;;;;;;;;5022907;28;20048;-81
2023/03/08 05:20:00;;;;;;;5.15;2.67;;;;;;;;;;5053759;28;20044;-81
2023/03/08 05:22:34;;;;;;;3.85;2.35;;;;;;;;;;5020935;28;20041;-81
2023/03/08 05:25:40;;;;;;;4.28;2.20;;;;;;;;;;5054396;28;20169;-81
2023/03/08 05:28:14;;;;;;;4.32;2.67;;;;;;;;;;5033652;28;20040;-81
2023/03/08 05:30:46;;;;;;;3.58;2.22;;;;;;;;;;5038877;28;20049;-81
2023/03/08 05:33:16;;;;;;;5.75;2.53;;;;;;;;;;5051841;28;20033;-81
2023/03/08 05:35:53;;;;;;;4.68;2.55;;;;;;;;;;5021120;28;20055;-81
2023/03/08 05:38:23;;;;;;;7.38;2.50;;;;;;;;;;5037651;28;20041;-80
2023/03/08 05:40:51;;;;;;;4.53;2.58;;;;;;;;;;5035638;28;20124;-81
2023/03/08 05:43:21;;;;;;;7.70;2.78;;;;;;;;;;5038568;28;20076;-81
2023/03/08 05:46:16;;;;;;;5.40;2.63;;;;;;;;;;5035190;28;20046;-81
2023/03/08 05:48:44;;;;;;;7.20;2.75;;;;;;;;;;5019584;28;20076;-81
2023/03/08 05:51:16;;;;;;;4.32;2.45;;;;;;;;;;5022330;28;20477;-81
2023/03/08 05:54:08;;;;;;;4.15;2.38;;;;;;;;;;5049801;28;20029;-81
2023/03/08 05:56:36;;;;;;;5.13;2.70;;;;;;;;;;5021532;28;20064;-81
2023/03/08 05:59:10;;;;;;;4.18;2.38;;;;;;;;;;5022025;28;20184;-81
2023/03/08 06:01:40;;;;;;;5.38;2.47;;;;;;;;;;5034839;28;20044;-81
2023/03/08 06:04:24;;;;;;;4.97;2.53;;;;;;;;;;5043160;28;20065;-81
2023/03/08 06:06:52;;;;;;;6.05;2.17;;;;;;;;;;5021155;28;20415;-81
2023/03/08 06:09:22;;;;;;;4.07;2.63;;;;;;;;;;5035591;28;20053;-81
2023/03/08 06:11:54;;;;;;;6.72;3.47;;;;;;;;;;5021192;28;20415;-81
2023/03/08 06:14:22;;;;;;;8.98;4.38;;;;;;;;;;5035777;28;20128;-81
2023/03/08 06:16:56;;;;;;;7.93;4.10;;;;;;;;;;5040320;28;20052;-81
2023/03/08 06:19:26;;;;;;;11.73;4.72;;;;;;;;;;5039292;28;20045;-80
2023/03/08 06:21:56;;;;;;;13.48;5.30;;;;;;;;;;5037626;28;20104;-81
2023/03/08 06:24:50;;;;;;;10.20;4.53;;;;;;;;;;5039970;28;20043;-80
2023/03/08 06:27:24;;;;;;;11.40;5.28;;;;;;;;;;5006851;28;20457;-81
2023/03/08 06:30:19;;;;;;;9.52;4.78;;;;;;;;;;5025347;28;20045;-81
2023/03/08 06:32:46;;;;;;;9.73;4.97;;;;;;;;;;5055253;28;20041;-81
2023/03/08 06:35:14;;;;;;;11.90;4.68;;;;;;;;;;5053812;28;20041;-81
2023/03/08 06:37:48;;;;;;;12.32;5.13;;;;;;;;;;5037561;28;20049;-81
2023/03/08 06:40:20;;;;;;;9.23;4.95;;;;;;;;;;5054149;28;20037;-81
2023/03/08 06:42:48;;;;;;;9.27;4.97;;;;;;;;;;5040165;28;20056;-80
2023/03/08 06:45:28;;;;;;;11.63;5.03;;;;;;;;;;5042804;28;20495;-81
2023/03/08 06:48:00;;;;;;;11.60;4.28;;;;;;;;;;5038646;28;20072;-81
2023/03/08 06:50:33;;;;;;;10.18;4.47;;;;;;;;;;5025330;28;20061;-81
2023/03/08 06:53:00;;;;;;;11.98;4.63;;;;;;;;;;5024365;28;21632;-81
2023/03/08 06:55:42;;;;;;;11.38;4.70;;;;;;;;;;5025280;28;20399;-81
2023/03/08 06:58:10;;;;;;;13.77;4.72;;;;;;;;;;5053075;28;20060;-80
2023/03/08 07:01:03;;;;;;;11.85;5.53;;;;;;;;;;5039534;28;20403;-80
2023/03/08 07:03:31;;;;;;;12.00;4.93;;;;;;;;;;5039445;28;20136;-80
2023/03/08 07:06:03;;;;;;;16.02;5.32;;;;;;;;;;5022940;28;20077;-80
2023/03/08 07:08:31;;;;;;;9.32;4.80;;;;;;;;;;5041408;28;20770;-80
2023/03/08 07:11:03;;;;;;;15.60;4.93;;;;;;;;;;5055323;28;20049;-80
2023/03/08 07:13:30;;;;;;;13.23;5.35;;;;;;;;;;5054991;28;20057;-80
2023/03/08 07:15:58;;;;;;;13.48;5.47;;;;;;;;;;5041002;28;20526;-80
2023/03/08 07:18:26;;;;;;;10.27;5.25;;;;;;;;;;5054678;28;20045;-80
2023/03/08 07:20:58;;;;;;;12.98;5.25;;;;;;;;;;5039653;28;20120;-80
2023/03/08 07:23:26;;;;;;;14.20;5.05;;;;;;;;;;5044851;28;20513;-80
2023/03/08 07:25:54;;;;;;;15.90;4.88;;;;;;;;;;5055657;28;20075;-80
2023/03/08 07:28:26;;;;;;;14.50;5.32;;;;;;;;;;5045653;28;20048;-80
2023/03/08 07:30:54;;;;;;;10.40;4.57;;;;;;;;;;5016537;28;20496;-80
2023/03/08 07:33:22;;;;;;;10.35;4.70;;;;;;;;;;5033380;28;20036;-80
2023/03/08 07:35:50;;;;;;;11.63;4.90;;;;;;;;;;5034546;28;20037;-80
2023/03/08 07:38:24;;;;;;;12.43;4.72;;;;;;;;;;5033815;28;20057;-80
2023/03/08 07:40:54;;;;;;;12.32;4.30;;;;;;;;;;5054174;28;20056;-80
2023/03/08 07:43:28;;;;;;;13.95;4.97;;;;;;;;;;5041547;28;20052;-80
2023/03/08 07:46:04;;;;;;;10.30;4.15;;;;;;;;;;5025789;28;20521;-81
2023/03/08 07:48:36;;;;;;;17.08;4.47;;;;;;;;;;5035753;28;20542;-80
2023/03/08 07:51:08;;;;;;;10.98;4.97;;;;;;;;;;5040586;28;20094;-80
2023/03/08 07:53:37;;;;;;;12.48;4.47;;;;;;;;;;5040625;28;20045;-80
2023/03/08 07:56:05;;;;;;;16.77;5.50;;;;;;;;;;5038586;28;20124;-80
2023/03/08 07:58:32;;;;;;;9.88;4.82;;;;;;;;;;5038905;28;20041;-80
2023/03/08 08:01:00;;;;;;;10.85;5.75;;;;;;;;;;5035242;28;20131;-80
2023/03/08 08:03:32;;;;;;;13.65;5.07;;;;;;;;;;5059949;28;20124;-80
2023/03/08 08:06:02;;;;;;;13.00;5.70;;;;;;;;;;5054639;28;20465;-80
2023/03/08 08:08:34;;;;;;;16.80;5.78;;;;;;;;;;5041405;28;20545;-80
2023/03/08 08:11:09;;;;;;;13.60;5.45;;;;;;;;;;5053711;28;20041;-80
2023/03/08 08:13:42;;;;;;;13.63;5.60;;;;;;;;;;5055953;28;20037;-80
2023/03/08 08:16:35;;;;;;;15.57;5.35;;;;;;;;;;5039689;28;20549;-80
2023/03/08 08:19:32;;;;;;;14.73;5.22;;;;;;;;;;5041327;28;20029;-80
2023/03/08 08:22:00;;;;;;;18.63;6.20;;;;;;;;;;5056046;28;20525;-80
2023/03/08 08:24:29;;;;;;;13.32;5.30;;;;;;;;;;5038196;28;20451;-80
2023/03/08 08:26:56;;;;;;;13.70;5.53;;;;;;;;;;5040496;28;20049;-80
2023/03/08 08:29:24;;;;;;;14.73;5.90;;;;;;;;;;5037234;28;20037;-80
2023/03/08 08:31:52;;;;;;;17.85;6.35;;;;;;;;;;5039123;28;20420;-80
2023/03/08 08:34:24;;;;;;;13.85;6.38;;;;;;;;;;5054263;28;20064;-80
2023/03/08 08:36:52;;;;;;;17.92;6.13;;;;;;;;;;5055471;28;20053;-80
2023/03/08 08:39:24;;;;;;;16.98;6.57;;;;;;;;;;5030465;28;20929;-80
2023/03/08 08:41:56;;;;;;;17.45;6.90;;;;;;;;;;5037821;28;20055;-80
2023/03/08 08:44:24;;;;;;;17.02;6.20;;;;;;;;;;5038027;28;20029;-80
2023/03/08 08:46:52;;;;;;;15.57;6.00;;;;;;;;;;5039615;28;20049;-80
2023/03/08 08:49:20;;;;;;;12.20;5.28;;;;;;;;;;5053142;28;20041;-80
2023/03/08 08:51:48;;;;;;;15.73;6.35;;;;;;;;;;5040674;28;20051;-81
2023/03/08 08:54:20;;;;;;;13.60;5.03;;;;;;;;;;5005201;28;20041;-80
2023/03/08 08:57:12;;;;;;;12.90;4.85;;;;;;;;;;5037206;28;20033;-80
2023/03/08 08:59:45;;;;;;;17.00;5.97;;;;;;;;;;5054932;28;20099;-80
2023/03/08 09:02:13;;;;;;;14.68;5.95;;;;;;;;;;5038654;28;20045;-80
2023/03/08 09:04:46;;;;;;;13.13;5.60;;;;;;;;;;5037801;28;20665;-81
2023/03/08 09:07:14;;;;;;;15.05;6.00;;;;;;;;;;5039189;28;20114;-80
2023/03/08 09:09:42;;;;;;;21.67;7.80;;;;;;;;;;5036574;28;20048;-81
2023/03/08 09:12:10;;;;;;;20.83;8.65;;;;;;;;;;5039798;28;20045;-81
2023/03/08 09:14:38;;;;;;;18.98;8.32;;;;;;;;;;5037674;28;20536;-80
2023/03/08 09:17:10;;;;;;;19.85;8.73;;;;;;;;;;5051566;28;20060;-81
2023/03/08 09:19:38;;;;;;;20.05;8.35;;;;;;;;;;5039109;28;20045;-80
2023/03/08 09:22:31;;;;;;;21.15;8.35;;;;;;;;;;5037031;28;20060;-81
2023/03/08 09:25:06;;;;;;;21.38;9.27;;;;;;;;;;5022941;28;20098;-80
2023/03/08 09:27:58;;;;;;;19.88;7.93;;;;;;;;;;5040286;28;20033;-80
2023/03/08 09:30:31;;;;;;;25.92;8.38;;;;;;;;;;5037222;28;20045;-80
2023/03/08 09:32:58;;;;;;;20.40;8.40;;;;;;;;;;5036269;28;20236;-80
2023/03/08 09:35:27;;;;;;;24.83;8.18;;;;;;;;;;5037685;28;20120;-81
2023/03/08 09:37:54;;;;;;;23.33;8.15;;;;;;;;;;5038263;28;20048;-80
2023/03/08 09:40:25;;;;;;;18.98;8.20;;;;;;;;;;5038401;28;20795;-80
2023/03/08 09:43:04;;;;;;;25.60;8.73;;;;;;;;;;5040428;28;20038;-80
2023/03/08 09:45:56;;;;;;;21.17;8.02;;;;;;;;;;5037277;28;20041;-81
2023/03/08 09:48:29;;;;;;;18.08;7.65;;;;;;;;;;5039243;28;20037;-81
2023/03/08 09:51:03;;;;;;;17.00;8.02;;;;;;;;;;5042040;28;20096;-81
2023/03/08 09:53:39;;;;;;;16.30;7.80;;;;;;;;;;5056223;28;20037;-80
2023/03/08 09:56:18;;;;;;;21.63;8.60;;;;;;;;;;5028926;28;20038;-80
2023/03/08 09:58:52;;;;;;;23.48;8.98;;;;;;;;;;5030624;28;20505;-80
2023/03/08 10:01:31;;;;;;;22.98;8.93;;;;;;;;;;5042146;28;20046;-80
2023/03/08 10:04:01;;;;;;;19.98;8.80;;;;;;;;;;5042429;28;20045;-81
2023/03/08 10:06:45;;;;;;;20.35;9.27;;;;;;;;;;5042141;28;20048;-81
2023/03/08 10:09:24;;;;;;;20.73;8.23;;;;;;;;;;5025805;28;20072;-80
2023/03/08 10:12:17;;;;;;;16.48;6.93;;;;;;;;;;5038910;28;20112;-80
2023/03/08 10:15:14;;;;;;;17.88;6.40;;;;;;;;;;5038072;28;20039;-81
2023/03/08 10:17:49;;;;;;;16.08;6.38;;;;;;;;;;5025577;28;20073;-81
2023/03/08 10:20:22;;;;;;;15.30;6.75;;;;;;;;;;5043434;28;20037;-80
2023/03/08 10:23:01;;;;;;;17.88;7.00;;;;;;;;;;5039713;28;20052;-81
2023/03/08 10:25:54;;;;;;;18.35;7.55;;;;;;;;;;5029883;28;20030;-80
2023/03/08 10:28:46;;;;;;;22.75;8.77;;;;;;;;;;5040366;28;20037;-81
2023/03/08 10:31:21;;;;;;;17.90;7.07;;;;;;;;;;5041740;28;20091;-81
2023/03/08 10:34:02;;;;;;;13.60;6.28;;;;;;;;;;5058485;28;20454;-81
2023/03/08 10:36:30;;;;;;;17.45;6.32;;;;;;;;;;5056148;28;20445;-81
2023/03/08 10:39:08;;;;;;;10.43;5.28;;;;;;;;;;5058596;28;20187;-81
2023/03/08 10:41:44;;;;;;;22.10;6.88;;;;;;;;;;5043144;28;20047;-81
2023/03/08 10:44:48;;;;;;;17.25;6.90;;;;;;;;;;5040532;28;20034;-80
2023/03/08 10:47:26;;;;;;;16.27;6.82;;;;;;;;;;5058410;28;20049;-81
2023/03/08 10:50:20;;;;;;;12.85;5.93;;;;;;;;;;5060764;28;20087;-81
2023/03/08 10:53:19;;;;;;;15.02;5.97;;;;;;;;;;5058488;28;20037;-80
2023/03/08 10:56:38;;;;;;;19.80;6.32;;;;;;;;;;5053228;28;20029;-81
2023/03/08 10:59:31;;;;;;;15.75;6.45;;;;;;;;;;5056604;28;20465;-81
2023/03/08 11:02:48;;;;;;;;;;;;;;;;;;5058368;28;20045;-80
2023/03/08 11:06:00;;;;;;;10.88;4.60;;;;;;;;;;5042760;28;19966;-80
2023/03/08 11:08:36;;;;;;;13.57;5.88;;;;;;;;;;5032694;28;20040;-81
2023/03/08 11:11:13;;;;;;;13.50;5.70;;;;;;;;;;5042046;28;20511;-81
2023/03/08 11:13:45;;;;;;;13.20;6.30;;;;;;;;;;5038048;28;20516;-81
2023/03/08 11:16:42;;;;;;;12.27;6.05;;;;;;;;;;5052642;28;20033;-81
2023/03/08 11:19:40;;;;;;;18.02;6.32;;;;;;;;;;5056292;28;20041;-81
2023/03/08 11:22:22;;;;;;;15.48;6.43;;;;;;;;;;5040563;28;20065;-81
2023/03/08 11:25:09;;;;;;;15.35;6.30;;;;;;;;;;5041976;28;20041;-80
2023/03/08 11:27:54;;;;;;;13.20;5.60;;;;;;;;;;5042027;28;20124;-81
2023/03/08 11:30:43;;;;;;;13.32;5.65;;;;;;;;;;5037605;28;20528;-81
2023/03/08 11:34:05;;;;;;;15.13;5.35;;;;;;;;;;5041603;28;20519;-81
2023/03/08 11:37:12;;;;;;;14.15;5.57;;;;;;;;;;5056359;28;20480;-81
2023/03/08 11:40:08;;;;;;;12.50;5.22;;;;;;;;;;4992502;28;20412;-81
2023/03/08 11:43:10;;;;;;;10.45;5.15;;;;;;;;;;5003240;28;20519;-81
2023/03/08 11:46:03;;;;;;;9.65;4.60;;;;;;;;;;5004206;28;20439;-80
2023/03/08 11:48:57;;;;;;;10.90;5.28;;;;;;;;;;5004735;28;20064;-80
2023/03/08 11:51:41;;;;;;;13.45;5.97;;;;;;;;;;5006753;28;20084;-80
2023/03/08 11:54:13;;;;;;;10.75;4.88;;;;;;;;;;4984727;28;20141;-80
2023/03/08 11:56:57;;;;;;;9.77;4.80;;;;;;;;;;4975954;28;20096;-80
2023/03/08 11:59:59;;;;;;;10.75;5.63;;;;;;;;;;5005170;28;20041;-80
2023/03/08 12:02:29;;;;;;;15.05;6.35;;;;;;;;;;5004588;28;20121;-81
2023/03/08 12:05:11;;;;;;;14.15;5.55;;;;;;;;;;5003383;28;20445;-80
2023/03/08 12:08:15;;;;;;;11.65;5.60;;;;;;;;;;5002161;28;20061;-80
2023/03/08 12:11:14;;;;;;;12.73;5.75;;;;;;;;;;5005843;28;20046;-80
2023/03/08 12:13:50;;;;;;;15.75;5.78;;;;;;;;;;5017314;28;20071;-82
2023/03/08 12:19:44;;;;;;;12.30;5.88;;;;;;;;;;5053616;28;20049;-83
2023/03/08 12:22:53;;;;;;;15.15;5.63;;;;;;;;;;5038867;28;20045;-82
2023/03/08 12:25:33;;;;;;;13.02;5.70;;;;;;;;;;5041621;28;20112;-83
2023/03/08 12:40:25;;;;;;;;;;;;;;;;;;5131839;27;21022;-81
2023/03/08 12:43:02;;;;;;;;;;;;;;;;;;5116641;27;19924;-81
2023/03/08 12:45:31;;;;;;;11.85;6.05;;;;;;;;;;5113408;27;19935;-81
2023/03/08 12:48:04;;;;;;;17.20;6.40;;;;;;;;;;5097214;28;20093;-81
2023/03/08 12:51:07;;;;;;;13.00;6.00;;;;;;;;;;5086475;28;20039;-81
2023/03/08 12:53:49;;;;;;;9.73;5.68;;;;;;;;;;5117423;27;20046;-81
2023/03/08 12:56:36;;;;;;;9.82;5.75;;;;;;;;;;5112457;27;20135;-81
2023/03/08 12:59:13;;;;;;;12.38;6.05;;;;;;;;;;5100071;28;20483;-81
2023/03/08 13:01:55;;;;;;;11.00;5.45;;;;;;;;;;5096453;28;20039;-81
2023/03/08 13:04:33;;;;;;;11.63;5.55;;;;;;;;;;5114286;27;20047;-81
2023/03/08 13:07:11;;;;;;;9.73;5.70;;;;;;;;;;5099973;27;20039;-81
2023/03/08 13:09:41;;;;;;;11.10;5.18;;;;;;;;;;5097304;28;20047;-81
2023/03/08 13:12:14;;;;;;;11.93;5.47;;;;;;;;;;5115842;27;20050;-81
2023/03/08 13:14:43;;;;;;;10.48;4.85;;;;;;;;;;5115220;27;20040;-81
2023/03/08 13:17:31;;;;;;;12.25;5.22;;;;;;;;;;5114999;27;20470;-81
2023/03/08 13:20:22;;;;;;;9.60;5.38;;;;;;;;;;5103351;27;20039;-83
2023/03/08 13:26:19;;;;;;;13.05;5.50;;;;;;;;;;5096861;27;20040;-81
2023/03/08 13:28:54;;;;;;;13.98;5.70;;;;;;;;;;5115956;28;20027;-81
2023/03/08 13:31:29;;;;;;;10.90;5.65;;;;;;;;;;5095085;28;20051;-81
2023/03/08 13:33:58;;;;;;;10.93;6.05;;;;;;;;;;5096187;27;20071;-81
2023/03/08 13:36:26;;;;;;;8.63;5.13;;;;;;;;;;5114838;27;20035;-81
2023/03/08 13:38:56;;;;;;;9.90;5.90;;;;;;;;;;5092268;28;20042;-81
2023/03/08 13:41:42;;;;;;;11.55;5.40;;;;;;;;;;5082994;28;20138;-81
2023/03/08 13:44:21;;;;;;;13.15;6.70;;;;;;;;;;5082606;28;20076;-82
2023/03/08 13:47:01;;;;;;;10.40;5.50;;;;;;;;;;5081700;28;20046;-80
2023/03/08 13:49:57;;;;;;;15.43;5.47;;;;;;;;;;5081417;28;20420;-81
2023/03/08 13:52:29;;;;;;;12.02;5.25;;;;;;;;;;5084844;28;20048;-81
2023/03/08 13:55:06;;;;;;;9.82;5.20;;;;;;;;;;5083574;28;20031;-81
2023/03/08 13:57:37;;;;;;;8.07;3.90;;;;;;;;;;5072739;28;20175;-81
2023/03/08 14:00:30;;;;;;;10.27;5.55;;;;;;;;;;5068040;28;20464;-81
2023/03/08 14:03:01;;;;;;;13.32;5.75;;;;;;;;;;5102363;28;20040;-81
2023/03/08 14:05:42;;;;;;;10.73;4.40;;;;;;;;;;5090061;28;20039;-81
2023/03/08 14:08:23;;;;;;;10.48;4.30;;;;;;;;;;5099710;27;20043;-81
2023/03/08 14:11:03;;;;;;;12.88;4.10;;;;;;;;;;5100765;28;20040;-81
2023/03/08 14:13:36;;;;;;;7.78;4.22;;;;;;;;;;5097969;28;20410;-83
2023/03/08 14:16:38;;;;;;;8.35;4.68;;;;;;;;;;5070138;28;20180;-82
2023/03/08 14:20:05;;;;;;;8.95;4.70;;;;;;;;;;5087219;28;20047;-83
2023/03/08 14:23:58;;;;;;;11.52;4.80;;;;;;;;;;5096735;28;20130;-83
2023/03/08 14:27:12;;;;;;;8.95;4.25;;;;;;;;;;5088725;28;20531;-84
2023/03/08 14:29:42;;;;;;;7.13;3.70;;;;;;;;;;5099157;28;20126;-82
2023/03/08 14:32:10;;;;;;;5.88;3.13;;;;;;;;;;5100232;28;20089;-82
2023/03/08 14:35:28;;;;;;;9.75;4.50;;;;;;;;;;5099772;28;20063;-82
2023/03/08 14:38:26;;;;;;;10.18;3.15;;;;;;;;;;5097671;28;20072;-80
2023/03/08 14:41:04;;;;;;;6.45;3.05;;;;;;;;;;5079671;28;20051;-80
2023/03/08 14:43:32;;;;;;;7.18;2.83;;;;;;;;;;5099944;28;20039;-80
2023/03/08 14:46:07;;;;;;;5.93;2.83;;;;;;;;;;5099229;28;20514;-80
2023/03/08 14:48:37;;;;;;;7.03;3.53;;;;;;;;;;5097520;28;20123;-80
2023/03/08 14:51:40;;;;;;;4.47;2.53;;;;;;;;;;5097098;28;20583;-80
2023/03/08 14:54:32;;;;;;;7.13;2.65;;;;;;;;;;5100219;28;20071;-80
2023/03/08 14:57:20;;;;;;;5.85;2.40;;;;;;;;;;5100266;28;20089;-80
2023/03/08 14:59:49;;;;;;;7.05;2.50;;;;;;;;;;5082598;28;20044;-80
2023/03/08 15:02:17;;;;;;;5.55;2.60;;;;;;;;;;5098625;28;20380;-80
2023/03/08 15:04:45;;;;;;;4.05;2.08;;;;;;;;;;5100636;28;20097;-80
2023/03/08 15:07:19;;;;;;;6.65;2.65;;;;;;;;;;5101586;28;20053;-80
2023/03/08 15:09:51;;;;;;;4.68;1.67;;;;;;;;;;5083213;28;20044;-80
2023/03/08 15:12:18;;;;;;;4.88;2.47;;;;;;;;;;5097197;28;20036;-80
2023/03/08 15:14:46;;;;;;;7.97;2.00;;;;;;;;;;5084009;28;20092;-80
2023/03/08 15:17:14;;;;;;;5.53;2.17;;;;;;;;;;5097755;28;20043;-80
2023/03/08 15:19:42;;;;;;;4.15;1.80;;;;;;;;;;5066092;28;20044;-80
2023/03/08 15:22:12;;;;;;;3.20;1.77;;;;;;;;;;5097003;28;20467;-80
2023/03/08 15:24:44;;;;;;;5.63;1.88;;;;;;;;;;5077191;28;20492;-80
2023/03/08 15:27:38;;;;;;;4.53;1.80;;;;;;;;;;5097558;28;20032;-80
2023/03/08 15:30:14;;;;;;;5.65;2.63;;;;;;;;;;5095418;28;20039;-80
2023/03/08 15:32:42;;;;;;;5.53;2.92;;;;;;;;;;5099415;28;20119;-80
2023/03/08 15:35:11;;;;;;;4.43;2.00;;;;;;;;;;5099812;28;20039;-80
2023/03/08 15:37:45;;;;;;;8.93;2.30;;;;;;;;;;5097406;28;20915;-80
2023/03/08 15:40:23;;;;;;;5.18;2.00;;;;;;;;;;5101563;28;20143;-80
2023/03/08 15:42:50;;;;;;;3.83;2.08;;;;;;;;;;5098820;28;20071;-80
2023/03/08 15:45:23;;;;;;;5.38;2.10;;;;;;;;;;5069287;28;20043;-80
2023/03/08 15:48:02;;;;;;;4.78;1.90;;;;;;;;;;5094168;28;20452;-80
2023/03/08 15:50:35;;;;;;;5.25;1.88;;;;;;;;;;5101260;28;20051;-80
2023/03/08 15:53:03;;;;;;;7.07;1.80;;;;;;;;;;5101010;28;20123;-80
2023/03/08 15:55:30;;;;;;;5.18;1.90;;;;;;;;;;5100421;28;20553;-80
2023/03/08 15:57:58;;;;;;;3.70;1.60;;;;;;;;;;5100709;28;20081;-80